Etusivu
METAR-TAF:

METAR-TAF

Lentoasemat :

Bodøn lentoasema

Bodø, Norja

Leveyspiiri: 67-16N, Pituuspiiri: 014-22E, korkeus merenpinnasta: 1 m

Tämänhetkinen sää

Tämä raportti tehtiin 26 minuuttia sitten, kello 05.20 UTC
Tuuli 8 kn idästä/kaakosta
Lämpötila 3°C
Kosteus 70%
Ilmanpaine 1024 hPa
Näkyvyys 10 km tai enemmän
Muutamia pilviä 4000 ft:n korkeudessa

METAR: ENBO 210520Z 11008KT 9999 FEW040 03/M02 Q1024 NOSIG

Aika: 06:46 (05:46 UTC)

Sääennuste

Ennuste voimassa 21. päivästä klo 00 UTC - 21. päivään klo 24 UTC
Tuuli 8 kn kaakosta
Näkyvyys 10 km tai enemmän
Muutamia pilviä 1500 ft:n korkeudessa
Hajonneita pilviä 4000 ft:n korkeudessa

TAF: ENBO 2100/2124 14008KT 9999 FEW015 BKN040

Säähavainnot ja -ennusteet yli 4000 lentoasemalta (METAR- ja TAF-raportit).

Käytössä olevat sääasemat on merkitty karttaan keltaisilla ja punaisilla pisteillä.

Aseta hiiri pisteen päälle nähdäksesi sääaseman nimen.

Klikkaa sitten nähdäksesi säähavainnot ja -ennusteet.

Kartan vaihtaminen: klikkaa mustalla rastilla varustettuja vihreitä pisteitä, niin voit zoomata sisään; viivalla varustettua vihreää pistettä, niin voit zoomata ulos tai vihreitä nuolia, niin pääset viereisille kartoille.


METAR-TAF: